sensor_id;sensor_type;location;lat;lon;timestamp;temperature;humidity
14614;DHT22;7393;51.446;6.800;2023-07-20T00:00:02;19.50;99.90
14614;DHT22;7393;51.446;6.800;2023-07-20T00:02:30;19.40;99.90
14614;DHT22;7393;51.446;6.800;2023-07-20T00:04:57;19.40;1.00
14614;DHT22;7393;51.446;6.800;2023-07-20T00:07:25;19.40;1.00
14614;DHT22;7393;51.446;6.800;2023-07-20T00:09:52;19.30;1.00
14614;DHT22;7393;51.446;6.800;2023-07-20T00:12:19;19.30;1.00
14614;DHT22;7393;51.446;6.800;2023-07-20T00:14:46;19.30;99.90
14614;DHT22;7393;51.446;6.800;2023-07-20T00:17:12;19.30;1.00
14614;DHT22;7393;51.446;6.800;2023-07-20T00:19:39;19.30;1.00
14614;DHT22;7393;51.446;6.800;2023-07-20T00:22:06;19.30;1.00
14614;DHT22;7393;51.446;6.800;2023-07-20T00:24:34;19.30;1.00
14614;DHT22;7393;51.446;6.800;2023-07-20T00:27:01;19.30;1.00
14614;DHT22;7393;51.446;6.800;2023-07-20T00:29:28;19.30;96.20
14614;DHT22;7393;51.446;6.800;2023-07-20T00:31:56;19.30;99.90
14614;DHT22;7393;51.446;6.800;2023-07-20T00:34:22;19.30;99.90
14614;DHT22;7393;51.446;6.800;2023-07-20T00:36:49;19.30;99.90
14614;DHT22;7393;51.446;6.800;2023-07-20T00:39:16;19.20;99.90
14614;DHT22;7393;51.446;6.800;2023-07-20T00:41:44;19.20;99.90
14614;DHT22;7393;51.446;6.800;2023-07-20T00:44:11;19.20;99.90
14614;DHT22;7393;51.446;6.800;2023-07-20T00:46:38;19.20;1.00
14614;DHT22;7393;51.446;6.800;2023-07-20T00:49:07;19.20;1.00
14614;DHT22;7393;51.446;6.800;2023-07-20T00:51:34;19.20;1.00
14614;DHT22;7393;51.446;6.800;2023-07-20T00:54:01;19.20;1.00
14614;DHT22;7393;51.446;6.800;2023-07-20T00:56:28;19.20;1.00
14614;DHT22;7393;51.446;6.800;2023-07-20T00:58:57;19.20;1.00
14614;DHT22;7393;51.446;6.800;2023-07-20T01:01:24;19.20;1.00
14614;DHT22;7393;51.446;6.800;2023-07-20T01:03:49;19.20;1.00
14614;DHT22;7393;51.446;6.800;2023-07-20T01:06:25;19.10;1.00
14614;DHT22;7393;51.446;6.800;2023-07-20T01:09:06;19.10;1.00
14614;DHT22;7393;51.446;6.800;2023-07-20T01:11:38;19.10;1.00
14614;DHT22;7393;51.446;6.800;2023-07-20T01:14:07;19.10;1.00
14614;DHT22;7393;51.446;6.800;2023-07-20T01:16:34;19.00;99.90
14614;DHT22;7393;51.446;6.800;2023-07-20T01:19:01;19.00;90.40
14614;DHT22;7393;51.446;6.800;2023-07-20T01:21:33;19.00;99.90
14614;DHT22;7393;51.446;6.800;2023-07-20T01:24:22;19.00;99.90
14614;DHT22;7393;51.446;6.800;2023-07-20T01:30:14;19.00;1.00
14614;DHT22;7393;51.446;6.800;2023-07-20T01:32:44;19.00;99.90
14614;DHT22;7393;51.446;6.800;2023-07-20T01:35:14;19.00;1.00
14614;DHT22;7393;51.446;6.800;2023-07-20T01:37:43;19.00;1.00
14614;DHT22;7393;51.446;6.800;2023-07-20T01:40:13;18.90;1.00
14614;DHT22;7393;51.446;6.800;2023-07-20T01:42:44;19.00;99.90
14614;DHT22;7393;51.446;6.800;2023-07-20T01:45:11;18.90;1.00
14614;DHT22;7393;51.446;6.800;2023-07-20T01:47:38;18.90;99.90
14614;DHT22;7393;51.446;6.800;2023-07-20T01:50:07;18.80;1.00
14614;DHT22;7393;51.446;6.800;2023-07-20T01:52:34;18.70;99.90
14614;DHT22;7393;51.446;6.800;2023-07-20T01:55:02;18.70;1.00
14614;DHT22;7393;51.446;6.800;2023-07-20T01:57:30;18.70;1.00
14614;DHT22;7393;51.446;6.800;2023-07-20T01:59:56;18.60;99.90
14614;DHT22;7393;51.446;6.800;2023-07-20T02:02:26;18.60;99.90
14614;DHT22;7393;51.446;6.800;2023-07-20T02:04:53;18.50;99.90
14614;DHT22;7393;51.446;6.800;2023-07-20T02:07:21;18.50;99.90
14614;DHT22;7393;51.446;6.800;2023-07-20T02:09:48;18.50;99.90
14614;DHT22;7393;51.446;6.800;2023-07-20T02:12:15;18.50;1.00
14614;DHT22;7393;51.446;6.800;2023-07-20T02:14:42;18.50;1.00
14614;DHT22;7393;51.446;6.800;2023-07-20T02:17:08;18.50;1.00
14614;DHT22;7393;51.446;6.800;2023-07-20T02:19:37;18.50;1.00
14614;DHT22;7393;51.446;6.800;2023-07-20T02:22:04;18.50;1.00
14614;DHT22;7393;51.446;6.800;2023-07-20T02:24:33;18.50;1.00
14614;DHT22;7393;51.446;6.800;2023-07-20T02:27:00;18.50;1.00
14614;DHT22;7393;51.446;6.800;2023-07-20T02:29:26;18.50;1.00
14614;DHT22;7393;51.446;6.800;2023-07-20T02:31:53;18.50;1.00
14614;DHT22;7393;51.446;6.800;2023-07-20T02:34:20;18.50;1.00
14614;DHT22;7393;51.446;6.800;2023-07-20T02:36:47;18.50;1.00
14614;DHT22;7393;51.446;6.800;2023-07-20T02:39:13;18.50;1.00
14614;DHT22;7393;51.446;6.800;2023-07-20T02:41:41;18.50;1.00
14614;DHT22;7393;51.446;6.800;2023-07-20T02:44:08;18.40;1.00
14614;DHT22;7393;51.446;6.800;2023-07-20T02:46:35;18.40;1.00
14614;DHT22;7393;51.446;6.800;2023-07-20T02:49:02;18.40;1.00
14614;DHT22;7393;51.446;6.800;2023-07-20T02:51:29;18.30;1.00
14614;DHT22;7393;51.446;6.800;2023-07-20T02:53:56;18.30;1.00
14614;DHT22;7393;51.446;6.800;2023-07-20T02:56:23;18.30;1.00
14614;DHT22;7393;51.446;6.800;2023-07-20T02:58:51;18.30;1.00
14614;DHT22;7393;51.446;6.800;2023-07-20T03:01:18;18.30;1.00
14614;DHT22;7393;51.446;6.800;2023-07-20T03:03:45;18.30;1.00
14614;DHT22;7393;51.446;6.800;2023-07-20T03:06:13;18.30;1.00
14614;DHT22;7393;51.446;6.800;2023-07-20T03:08:40;18.30;1.00
14614;DHT22;7393;51.446;6.800;2023-07-20T03:11:10;18.30;1.00
14614;DHT22;7393;51.446;6.800;2023-07-20T03:13:37;18.30;1.00
14614;DHT22;7393;51.446;6.800;2023-07-20T03:16:05;18.30;1.00
14614;DHT22;7393;51.446;6.800;2023-07-20T03:18:36;18.30;1.00
14614;DHT22;7393;51.446;6.800;2023-07-20T03:21:03;18.30;1.00
14614;DHT22;7393;51.446;6.800;2023-07-20T03:23:30;18.30;1.00
14614;DHT22;7393;51.446;6.800;2023-07-20T03:25:57;18.20;1.00
14614;DHT22;7393;51.446;6.800;2023-07-20T03:28:24;18.20;1.00
14614;DHT22;7393;51.446;6.800;2023-07-20T03:30:53;18.20;1.00
14614;DHT22;7393;51.446;6.800;2023-07-20T03:33:21;18.20;1.00
14614;DHT22;7393;51.446;6.800;2023-07-20T03:35:48;18.20;1.00
14614;DHT22;7393;51.446;6.800;2023-07-20T03:38:15;18.20;1.00
14614;DHT22;7393;51.446;6.800;2023-07-20T03:40:49;18.20;1.00
14614;DHT22;7393;51.446;6.800;2023-07-20T03:43:15;18.20;1.00
14614;DHT22;7393;51.446;6.800;2023-07-20T03:45:41;18.20;1.00
14614;DHT22;7393;51.446;6.800;2023-07-20T03:48:08;18.20;1.00
14614;DHT22;7393;51.446;6.800;2023-07-20T03:50:36;18.20;1.00
14614;DHT22;7393;51.446;6.800;2023-07-20T03:53:03;18.20;1.00
14614;DHT22;7393;51.446;6.800;2023-07-20T03:55:30;18.20;1.00
14614;DHT22;7393;51.446;6.800;2023-07-20T03:57:57;18.10;1.00
14614;DHT22;7393;51.446;6.800;2023-07-20T04:00:24;18.10;1.00
14614;DHT22;7393;51.446;6.800;2023-07-20T04:02:50;18.10;1.00
14614;DHT22;7393;51.446;6.800;2023-07-20T04:05:17;18.20;1.00
14614;DHT22;7393;51.446;6.800;2023-07-20T04:07:46;18.10;1.00
14614;DHT22;7393;51.446;6.800;2023-07-20T04:10:12;18.10;1.00
14614;DHT22;7393;51.446;6.800;2023-07-20T04:12:40;18.10;1.00
14614;DHT22;7393;51.446;6.800;2023-07-20T04:15:08;18.10;1.00
14614;DHT22;7393;51.446;6.800;2023-07-20T04:17:34;18.00;1.00
14614;DHT22;7393;51.446;6.800;2023-07-20T04:20:01;18.10;1.00
14614;DHT22;7393;51.446;6.800;2023-07-20T04:22:31;18.00;1.00
14614;DHT22;7393;51.446;6.800;2023-07-20T04:24:59;18.00;1.00
14614;DHT22;7393;51.446;6.800;2023-07-20T04:27:26;18.00;1.00
14614;DHT22;7393;51.446;6.800;2023-07-20T04:29:53;18.00;1.00
14614;DHT22;7393;51.446;6.800;2023-07-20T04:32:20;18.00;1.00
14614;DHT22;7393;51.446;6.800;2023-07-20T04:34:46;18.00;1.00
14614;DHT22;7393;51.446;6.800;2023-07-20T04:37:13;18.00;1.00
14614;DHT22;7393;51.446;6.800;2023-07-20T04:39:40;18.00;1.00
14614;DHT22;7393;51.446;6.800;2023-07-20T04:42:08;18.00;1.00
14614;DHT22;7393;51.446;6.800;2023-07-20T04:44:35;18.00;1.00
14614;DHT22;7393;51.446;6.800;2023-07-20T04:47:02;18.00;1.00
14614;DHT22;7393;51.446;6.800;2023-07-20T04:49:29;18.00;1.00
14614;DHT22;7393;51.446;6.800;2023-07-20T04:51:56;17.90;1.00
14614;DHT22;7393;51.446;6.800;2023-07-20T04:54:23;18.00;1.00
14614;DHT22;7393;51.446;6.800;2023-07-20T04:56:50;18.00;1.00
14614;DHT22;7393;51.446;6.800;2023-07-20T04:59:18;18.00;1.00
14614;DHT22;7393;51.446;6.800;2023-07-20T05:01:45;18.00;1.00
14614;DHT22;7393;51.446;6.800;2023-07-20T05:04:11;18.00;1.00
14614;DHT22;7393;51.446;6.800;2023-07-20T05:06:38;18.00;1.00
14614;DHT22;7393;51.446;6.800;2023-07-20T05:09:05;18.00;1.00
14614;DHT22;7393;51.446;6.800;2023-07-20T05:11:33;17.90;1.00
14614;DHT22;7393;51.446;6.800;2023-07-20T05:14:00;17.90;1.00
14614;DHT22;7393;51.446;6.800;2023-07-20T05:16:28;17.90;1.00
14614;DHT22;7393;51.446;6.800;2023-07-20T05:18:55;17.80;1.00
14614;DHT22;7393;51.446;6.800;2023-07-20T05:21:22;17.80;1.00
14614;DHT22;7393;51.446;6.800;2023-07-20T05:23:49;17.90;1.00
14614;DHT22;7393;51.446;6.800;2023-07-20T05:26:16;17.90;1.00
14614;DHT22;7393;51.446;6.800;2023-07-20T05:28:43;17.90;1.00
14614;DHT22;7393;51.446;6.800;2023-07-20T05:31:10;17.90;1.00
14614;DHT22;7393;51.446;6.800;2023-07-20T05:33:38;17.90;1.00
14614;DHT22;7393;51.446;6.800;2023-07-20T05:36:05;17.90;1.00
14614;DHT22;7393;51.446;6.800;2023-07-20T05:38:31;17.80;1.00
14614;DHT22;7393;51.446;6.800;2023-07-20T05:41:00;17.80;1.00
14614;DHT22;7393;51.446;6.800;2023-07-20T05:43:29;17.80;1.00
14614;DHT22;7393;51.446;6.800;2023-07-20T05:45:56;17.80;1.00
14614;DHT22;7393;51.446;6.800;2023-07-20T05:48:23;17.70;1.00
14614;DHT22;7393;51.446;6.800;2023-07-20T05:50:52;17.70;1.00
14614;DHT22;7393;51.446;6.800;2023-07-20T05:53:19;17.70;1.00
14614;DHT22;7393;51.446;6.800;2023-07-20T05:55:52;17.70;1.00
14614;DHT22;7393;51.446;6.800;2023-07-20T05:58:18;17.70;1.00
14614;DHT22;7393;51.446;6.800;2023-07-20T06:00:47;17.80;1.00
14614;DHT22;7393;51.446;6.800;2023-07-20T06:03:14;17.90;1.00
14614;DHT22;7393;51.446;6.800;2023-07-20T06:05:42;18.00;1.00
14614;DHT22;7393;51.446;6.800;2023-07-20T06:08:10;18.00;1.00
14614;DHT22;7393;51.446;6.800;2023-07-20T06:10:37;18.10;99.90
14614;DHT22;7393;51.446;6.800;2023-07-20T06:13:04;18.10;99.90
14614;DHT22;7393;51.446;6.800;2023-07-20T06:15:32;18.10;99.90
14614;DHT22;7393;51.446;6.800;2023-07-20T06:18:01;18.10;1.00
14614;DHT22;7393;51.446;6.800;2023-07-20T06:20:29;18.10;99.90
14614;DHT22;7393;51.446;6.800;2023-07-20T06:22:56;18.20;99.90
14614;DHT22;7393;51.446;6.800;2023-07-20T06:25:24;18.10;99.90
14614;DHT22;7393;51.446;6.800;2023-07-20T06:27:51;18.20;99.90
14614;DHT22;7393;51.446;6.800;2023-07-20T06:30:19;18.20;99.90
14614;DHT22;7393;51.446;6.800;2023-07-20T06:32:46;18.20;99.90
14614;DHT22;7393;51.446;6.800;2023-07-20T06:35:13;18.30;99.90
14614;DHT22;7393;51.446;6.800;2023-07-20T06:37:40;18.30;99.90
14614;DHT22;7393;51.446;6.800;2023-07-20T06:40:08;18.40;99.90
14614;DHT22;7393;51.446;6.800;2023-07-20T06:42:36;18.40;99.90
14614;DHT22;7393;51.446;6.800;2023-07-20T06:45:04;18.40;99.90
14614;DHT22;7393;51.446;6.800;2023-07-20T06:47:31;18.50;99.90
14614;DHT22;7393;51.446;6.800;2023-07-20T06:49:58;18.50;1.00
14614;DHT22;7393;51.446;6.800;2023-07-20T06:52:24;18.60;99.90
14614;DHT22;7393;51.446;6.800;2023-07-20T06:54:51;18.60;99.90
14614;DHT22;7393;51.446;6.800;2023-07-20T06:57:18;18.60;1.00
14614;DHT22;7393;51.446;6.800;2023-07-20T06:59:46;18.60;99.90
14614;DHT22;7393;51.446;6.800;2023-07-20T07:02:14;18.70;99.90
14614;DHT22;7393;51.446;6.800;2023-07-20T07:04:41;18.80;1.00
14614;DHT22;7393;51.446;6.800;2023-07-20T07:07:08;18.90;99.90
14614;DHT22;7393;51.446;6.800;2023-07-20T07:09:35;18.90;1.00
14614;DHT22;7393;51.446;6.800;2023-07-20T07:12:02;18.90;99.90
14614;DHT22;7393;51.446;6.800;2023-07-20T07:14:29;18.90;99.90
14614;DHT22;7393;51.446;6.800;2023-07-20T07:16:57;19.00;1.00
14614;DHT22;7393;51.446;6.800;2023-07-20T07:19:24;19.00;99.90
14614;DHT22;7393;51.446;6.800;2023-07-20T07:21:51;19.10;1.00
14614;DHT22;7393;51.446;6.800;2023-07-20T07:24:18;19.20;1.00
14614;DHT22;7393;51.446;6.800;2023-07-20T07:26:44;19.20;1.00
14614;DHT22;7393;51.446;6.800;2023-07-20T07:29:11;19.30;9.30
14614;DHT22;7393;51.446;6.800;2023-07-20T07:31:38;19.40;1.00
14614;DHT22;7393;51.446;6.800;2023-07-20T07:34:06;19.50;99.90
14614;DHT22;7393;51.446;6.800;2023-07-20T07:36:33;19.60;1.00
14614;DHT22;7393;51.446;6.800;2023-07-20T07:39:00;19.70;1.00
14614;DHT22;7393;51.446;6.800;2023-07-20T07:41:26;19.90;1.00
14614;DHT22;7393;51.446;6.800;2023-07-20T07:43:53;20.00;99.90
14614;DHT22;7393;51.446;6.800;2023-07-20T07:46:20;20.10;1.00
14614;DHT22;7393;51.446;6.800;2023-07-20T07:48:47;20.20;99.90
14614;DHT22;7393;51.446;6.800;2023-07-20T07:51:15;20.30;1.00
14614;DHT22;7393;51.446;6.800;2023-07-20T07:53:42;20.30;14.20
14614;DHT22;7393;51.446;6.800;2023-07-20T07:56:09;20.40;99.90
14614;DHT22;7393;51.446;6.800;2023-07-20T07:58:36;20.30;1.00
14614;DHT22;7393;51.446;6.800;2023-07-20T08:01:03;20.40;1.00
14614;DHT22;7393;51.446;6.800;2023-07-20T08:03:30;20.30;1.00
14614;DHT22;7393;51.446;6.800;2023-07-20T08:05:57;20.20;1.00
14614;DHT22;7393;51.446;6.800;2023-07-20T08:08:25;20.20;52.60
14614;DHT22;7393;51.446;6.800;2023-07-20T08:10:53;20.20;99.90
14614;DHT22;7393;51.446;6.800;2023-07-20T08:13:20;20.30;99.90
14614;DHT22;7393;51.446;6.800;2023-07-20T08:15:50;20.40;1.00
14614;DHT22;7393;51.446;6.800;2023-07-20T08:18:18;20.60;1.00
14614;DHT22;7393;51.446;6.800;2023-07-20T08:20:45;20.70;99.90
14614;DHT22;7393;51.446;6.800;2023-07-20T08:23:12;20.90;99.90
14614;DHT22;7393;51.446;6.800;2023-07-20T08:25:40;21.00;99.90
14614;DHT22;7393;51.446;6.800;2023-07-20T08:28:10;21.10;99.90
14614;DHT22;7393;51.446;6.800;2023-07-20T08:30:40;21.20;99.90
14614;DHT22;7393;51.446;6.800;2023-07-20T08:33:09;21.20;99.90
14614;DHT22;7393;51.446;6.800;2023-07-20T08:35:36;21.20;83.10
14614;DHT22;7393;51.446;6.800;2023-07-20T08:38:03;21.20;99.90
14614;DHT22;7393;51.446;6.800;2023-07-20T08:40:31;21.20;1.00
14614;DHT22;7393;51.446;6.800;2023-07-20T08:43:00;21.20;1.00
14614;DHT22;7393;51.446;6.800;2023-07-20T08:45:28;21.00;1.00
14614;DHT22;7393;51.446;6.800;2023-07-20T08:47:56;20.90;1.00
14614;DHT22;7393;51.446;6.800;2023-07-20T08:50:25;20.90;17.90
14614;DHT22;7393;51.446;6.800;2023-07-20T08:52:53;20.80;54.90
14614;DHT22;7393;51.446;6.800;2023-07-20T08:55:20;20.80;48.60
14614;DHT22;7393;51.446;6.800;2023-07-20T08:57:50;20.90;99.90
14614;DHT22;7393;51.446;6.800;2023-07-20T09:00:21;21.00;59.70
14614;DHT22;7393;51.446;6.800;2023-07-20T09:02:50;21.10;1.00
14614;DHT22;7393;51.446;6.800;2023-07-20T09:05:17;21.20;1.00
14614;DHT22;7393;51.446;6.800;2023-07-20T09:07:44;21.30;1.00
14614;DHT22;7393;51.446;6.800;2023-07-20T09:10:11;21.40;1.00
14614;DHT22;7393;51.446;6.800;2023-07-20T09:12:39;21.30;1.00
14614;DHT22;7393;51.446;6.800;2023-07-20T09:15:07;21.20;1.00
14614;DHT22;7393;51.446;6.800;2023-07-20T09:17:36;21.20;1.00
14614;DHT22;7393;51.446;6.800;2023-07-20T09:20:05;21.20;1.00
14614;DHT22;7393;51.446;6.800;2023-07-20T09:22:34;21.30;1.00
14614;DHT22;7393;51.446;6.800;2023-07-20T09:25:01;21.40;1.00
14614;DHT22;7393;51.446;6.800;2023-07-20T09:27:35;21.50;1.00
14614;DHT22;7393;51.446;6.800;2023-07-20T09:30:03;21.60;1.00
14614;DHT22;7393;51.446;6.800;2023-07-20T09:32:30;21.70;1.00
14614;DHT22;7393;51.446;6.800;2023-07-20T09:34:58;21.90;1.00
14614;DHT22;7393;51.446;6.800;2023-07-20T09:37:25;22.00;1.00
14614;DHT22;7393;51.446;6.800;2023-07-20T09:39:53;22.20;1.00
14614;DHT22;7393;51.446;6.800;2023-07-20T09:42:21;22.30;1.00
14614;DHT22;7393;51.446;6.800;2023-07-20T09:44:50;22.40;1.00
14614;DHT22;7393;51.446;6.800;2023-07-20T09:47:22;22.60;1.00
14614;DHT22;7393;51.446;6.800;2023-07-20T09:49:49;22.70;1.00
14614;DHT22;7393;51.446;6.800;2023-07-20T09:52:17;22.80;1.00
14614;DHT22;7393;51.446;6.800;2023-07-20T09:54:46;22.90;1.00
14614;DHT22;7393;51.446;6.800;2023-07-20T09:57:13;23.00;1.00
14614;DHT22;7393;51.446;6.800;2023-07-20T09:59:40;23.20;1.00
14614;DHT22;7393;51.446;6.800;2023-07-20T10:02:14;23.40;1.00
14614;DHT22;7393;51.446;6.800;2023-07-20T10:04:43;23.60;1.00
14614;DHT22;7393;51.446;6.800;2023-07-20T10:07:10;23.70;1.00
14614;DHT22;7393;51.446;6.800;2023-07-20T10:09:40;23.80;1.00
14614;DHT22;7393;51.446;6.800;2023-07-20T10:12:09;23.90;1.00
14614;DHT22;7393;51.446;6.800;2023-07-20T10:14:41;24.00;1.00
14614;DHT22;7393;51.446;6.800;2023-07-20T10:17:11;24.00;1.00
14614;DHT22;7393;51.446;6.800;2023-07-20T10:19:43;24.10;1.00
14614;DHT22;7393;51.446;6.800;2023-07-20T10:22:13;24.30;1.00
14614;DHT22;7393;51.446;6.800;2023-07-20T10:24:46;24.40;1.00
14614;DHT22;7393;51.446;6.800;2023-07-20T10:27:13;24.40;1.00
14614;DHT22;7393;51.446;6.800;2023-07-20T10:29:40;24.50;1.00
14614;DHT22;7393;51.446;6.800;2023-07-20T10:32:08;24.60;1.00
14614;DHT22;7393;51.446;6.800;2023-07-20T10:34:36;24.80;1.00
14614;DHT22;7393;51.446;6.800;2023-07-20T10:37:03;24.90;1.00
14614;DHT22;7393;51.446;6.800;2023-07-20T10:39:32;25.10;1.00
14614;DHT22;7393;51.446;6.800;2023-07-20T10:42:02;25.10;1.00
14614;DHT22;7393;51.446;6.800;2023-07-20T10:44:30;25.30;1.00
14614;DHT22;7393;51.446;6.800;2023-07-20T10:47:00;25.40;1.00
14614;DHT22;7393;51.446;6.800;2023-07-20T10:49:28;25.50;1.00
14614;DHT22;7393;51.446;6.800;2023-07-20T10:51:59;25.70;1.00
14614;DHT22;7393;51.446;6.800;2023-07-20T10:54:48;25.70;1.00
14614;DHT22;7393;51.446;6.800;2023-07-20T10:57:24;25.80;1.00
14614;DHT22;7393;51.446;6.800;2023-07-20T11:00:07;25.90;1.00
14614;DHT22;7393;51.446;6.800;2023-07-20T11:02:42;26.10;1.00
14614;DHT22;7393;51.446;6.800;2023-07-20T11:05:37;26.30;1.00
14614;DHT22;7393;51.446;6.800;2023-07-20T11:08:06;26.40;1.00
14614;DHT22;7393;51.446;6.800;2023-07-20T11:10:35;26.50;1.00
14614;DHT22;7393;51.446;6.800;2023-07-20T11:13:23;26.50;1.00
14614;DHT22;7393;51.446;6.800;2023-07-20T11:16:04;26.60;1.00
14614;DHT22;7393;51.446;6.800;2023-07-20T11:18:33;26.70;1.00
14614;DHT22;7393;51.446;6.800;2023-07-20T11:21:01;26.80;1.00
14614;DHT22;7393;51.446;6.800;2023-07-20T11:23:29;26.90;1.00
14614;DHT22;7393;51.446;6.800;2023-07-20T11:25:58;27.00;1.00
14614;DHT22;7393;51.446;6.800;2023-07-20T11:28:30;27.00;1.00
14614;DHT22;7393;51.446;6.800;2023-07-20T11:30:56;27.00;1.00
14614;DHT22;7393;51.446;6.800;2023-07-20T11:33:23;26.90;1.00
14614;DHT22;7393;51.446;6.800;2023-07-20T11:35:50;26.70;1.00
14614;DHT22;7393;51.446;6.800;2023-07-20T11:38:18;26.50;1.00
14614;DHT22;7393;51.446;6.800;2023-07-20T11:40:45;26.50;1.00
14614;DHT22;7393;51.446;6.800;2023-07-20T11:43:12;26.60;1.00
14614;DHT22;7393;51.446;6.800;2023-07-20T11:45:41;26.60;1.00
14614;DHT22;7393;51.446;6.800;2023-07-20T11:48:14;26.80;1.00
14614;DHT22;7393;51.446;6.800;2023-07-20T11:50:41;26.90;1.00
14614;DHT22;7393;51.446;6.800;2023-07-20T11:53:08;27.00;1.00
14614;DHT22;7393;51.446;6.800;2023-07-20T11:55:36;27.00;1.00
14614;DHT22;7393;51.446;6.800;2023-07-20T11:58:04;27.00;1.00
14614;DHT22;7393;51.446;6.800;2023-07-20T12:00:31;26.90;1.00
14614;DHT22;7393;51.446;6.800;2023-07-20T12:03:00;26.90;1.00
14614;DHT22;7393;51.446;6.800;2023-07-20T12:05:27;26.80;1.00
14614;DHT22;7393;51.446;6.800;2023-07-20T12:07:54;26.80;1.00
14614;DHT22;7393;51.446;6.800;2023-07-20T12:10:25;26.80;1.00
14614;DHT22;7393;51.446;6.800;2023-07-20T12:12:52;26.70;1.00
14614;DHT22;7393;51.446;6.800;2023-07-20T12:15:21;26.50;1.00
14614;DHT22;7393;51.446;6.800;2023-07-20T12:17:50;26.50;1.00
14614;DHT22;7393;51.446;6.800;2023-07-20T12:20:27;26.60;1.00
14614;DHT22;7393;51.446;6.800;2023-07-20T12:22:57;26.60;1.00
14614;DHT22;7393;51.446;6.800;2023-07-20T12:25:32;26.50;1.00
14614;DHT22;7393;51.446;6.800;2023-07-20T12:28:00;26.40;1.00
14614;DHT22;7393;51.446;6.800;2023-07-20T12:30:29;26.40;1.00
14614;DHT22;7393;51.446;6.800;2023-07-20T12:32:56;26.30;1.00
14614;DHT22;7393;51.446;6.800;2023-07-20T12:35:22;26.30;1.00
14614;DHT22;7393;51.446;6.800;2023-07-20T12:37:51;26.20;1.00
14614;DHT22;7393;51.446;6.800;2023-07-20T12:40:19;26.10;1.00
14614;DHT22;7393;51.446;6.800;2023-07-20T12:42:46;26.10;1.00
14614;DHT22;7393;51.446;6.800;2023-07-20T12:45:13;26.00;1.00
14614;DHT22;7393;51.446;6.800;2023-07-20T12:47:40;25.90;1.00
14614;DHT22;7393;51.446;6.800;2023-07-20T12:50:09;25.90;1.00
14614;DHT22;7393;51.446;6.800;2023-07-20T12:52:36;25.90;1.00
14614;DHT22;7393;51.446;6.800;2023-07-20T12:55:06;25.90;1.00
14614;DHT22;7393;51.446;6.800;2023-07-20T12:57:33;25.80;1.00
14614;DHT22;7393;51.446;6.800;2023-07-20T13:00:00;25.80;1.00
14614;DHT22;7393;51.446;6.800;2023-07-20T13:02:27;25.80;1.00
14614;DHT22;7393;51.446;6.800;2023-07-20T13:04:54;25.90;1.00
14614;DHT22;7393;51.446;6.800;2023-07-20T13:07:29;25.90;1.00
14614;DHT22;7393;51.446;6.800;2023-07-20T13:09:57;25.90;1.00
14614;DHT22;7393;51.446;6.800;2023-07-20T13:12:27;26.00;1.00
14614;DHT22;7393;51.446;6.800;2023-07-20T13:14:54;26.00;1.00
14614;DHT22;7393;51.446;6.800;2023-07-20T13:17:22;26.10;1.00
14614;DHT22;7393;51.446;6.800;2023-07-20T13:19:49;26.20;1.00
14614;DHT22;7393;51.446;6.800;2023-07-20T13:22:16;26.30;1.00
14614;DHT22;7393;51.446;6.800;2023-07-20T13:24:44;26.40;1.00
14614;DHT22;7393;51.446;6.800;2023-07-20T13:27:11;26.60;1.00
14614;DHT22;7393;51.446;6.800;2023-07-20T13:29:40;26.70;1.00
14614;DHT22;7393;51.446;6.800;2023-07-20T13:32:07;26.90;1.00
14614;DHT22;7393;51.446;6.800;2023-07-20T13:34:34;26.90;1.00
14614;DHT22;7393;51.446;6.800;2023-07-20T13:37:03;27.00;1.00
14614;DHT22;7393;51.446;6.800;2023-07-20T13:39:29;27.00;1.00
14614;DHT22;7393;51.446;6.800;2023-07-20T13:41:56;27.00;1.00
14614;DHT22;7393;51.446;6.800;2023-07-20T13:44:23;27.00;1.00
14614;DHT22;7393;51.446;6.800;2023-07-20T13:46:51;26.90;1.00
14614;DHT22;7393;51.446;6.800;2023-07-20T13:49:18;26.70;1.00
14614;DHT22;7393;51.446;6.800;2023-07-20T13:51:45;26.60;1.00
14614;DHT22;7393;51.446;6.800;2023-07-20T13:54:12;26.50;1.00
14614;DHT22;7393;51.446;6.800;2023-07-20T13:56:39;26.50;1.00
14614;DHT22;7393;51.446;6.800;2023-07-20T13:59:06;26.50;1.00
14614;DHT22;7393;51.446;6.800;2023-07-20T14:01:33;26.50;1.00
14614;DHT22;7393;51.446;6.800;2023-07-20T14:04:02;26.40;1.00
14614;DHT22;7393;51.446;6.800;2023-07-20T14:06:30;26.40;1.00
14614;DHT22;7393;51.446;6.800;2023-07-20T14:08:58;26.50;1.00
14614;DHT22;7393;51.446;6.800;2023-07-20T14:11:25;26.50;1.00
14614;DHT22;7393;51.446;6.800;2023-07-20T14:13:53;26.50;1.00
14614;DHT22;7393;51.446;6.800;2023-07-20T14:16:19;26.50;1.00
14614;DHT22;7393;51.446;6.800;2023-07-20T14:18:46;26.50;1.00
14614;DHT22;7393;51.446;6.800;2023-07-20T14:21:15;26.40;1.00
14614;DHT22;7393;51.446;6.800;2023-07-20T14:23:45;26.50;1.00
14614;DHT22;7393;51.446;6.800;2023-07-20T14:26:12;26.60;1.00
14614;DHT22;7393;51.446;6.800;2023-07-20T14:28:39;26.60;1.00
14614;DHT22;7393;51.446;6.800;2023-07-20T14:31:06;26.70;1.00
14614;DHT22;7393;51.446;6.800;2023-07-20T14:33:33;26.70;1.00
14614;DHT22;7393;51.446;6.800;2023-07-20T14:36:01;26.70;1.00
14614;DHT22;7393;51.446;6.800;2023-07-20T14:38:30;26.70;1.00
14614;DHT22;7393;51.446;6.800;2023-07-20T14:40:57;26.80;1.00
14614;DHT22;7393;51.446;6.800;2023-07-20T14:43:24;27.00;1.00
14614;DHT22;7393;51.446;6.800;2023-07-20T14:45:51;27.00;1.00
14614;DHT22;7393;51.446;6.800;2023-07-20T14:48:17;27.00;1.00
14614;DHT22;7393;51.446;6.800;2023-07-20T14:50:44;27.00;1.00
14614;DHT22;7393;51.446;6.800;2023-07-20T14:53:12;26.90;1.00
14614;DHT22;7393;51.446;6.800;2023-07-20T14:55:41;26.90;1.00
14614;DHT22;7393;51.446;6.800;2023-07-20T14:58:08;26.80;1.00
14614;DHT22;7393;51.446;6.800;2023-07-20T15:00:35;26.80;1.00
14614;DHT22;7393;51.446;6.800;2023-07-20T15:03:02;26.80;1.00
14614;DHT22;7393;51.446;6.800;2023-07-20T15:05:30;26.70;1.00
14614;DHT22;7393;51.446;6.800;2023-07-20T15:07:57;26.70;1.00
14614;DHT22;7393;51.446;6.800;2023-07-20T15:10:23;26.60;1.00
14614;DHT22;7393;51.446;6.800;2023-07-20T15:12:52;26.50;1.00
14614;DHT22;7393;51.446;6.800;2023-07-20T15:15:18;26.40;1.00
14614;DHT22;7393;51.446;6.800;2023-07-20T15:17:45;26.40;1.00
14614;DHT22;7393;51.446;6.800;2023-07-20T15:20:13;26.40;1.00
14614;DHT22;7393;51.446;6.800;2023-07-20T15:22:40;26.40;1.00
14614;DHT22;7393;51.446;6.800;2023-07-20T15:25:08;26.40;1.00
14614;DHT22;7393;51.446;6.800;2023-07-20T15:27:36;26.30;1.00
14614;DHT22;7393;51.446;6.800;2023-07-20T15:30:06;26.30;1.00
14614;DHT22;7393;51.446;6.800;2023-07-20T15:32:33;26.30;1.00
14614;DHT22;7393;51.446;6.800;2023-07-20T15:34:59;26.20;1.00
14614;DHT22;7393;51.446;6.800;2023-07-20T15:37:28;26.20;1.00
14614;DHT22;7393;51.446;6.800;2023-07-20T15:39:55;26.20;1.00
14614;DHT22;7393;51.446;6.800;2023-07-20T15:42:21;26.20;1.00
14614;DHT22;7393;51.446;6.800;2023-07-20T15:44:48;26.20;1.00
14614;DHT22;7393;51.446;6.800;2023-07-20T15:47:16;26.10;1.00
14614;DHT22;7393;51.446;6.800;2023-07-20T15:49:44;26.00;1.00
14614;DHT22;7393;51.446;6.800;2023-07-20T15:52:11;25.90;1.00
14614;DHT22;7393;51.446;6.800;2023-07-20T15:54:39;25.90;1.00
14614;DHT22;7393;51.446;6.800;2023-07-20T15:57:06;25.90;1.00
14614;DHT22;7393;51.446;6.800;2023-07-20T15:59:34;25.80;1.00
14614;DHT22;7393;51.446;6.800;2023-07-20T16:02:01;25.70;1.00
14614;DHT22;7393;51.446;6.800;2023-07-20T16:04:31;25.60;1.00
14614;DHT22;7393;51.446;6.800;2023-07-20T16:06:58;25.50;1.00